Time;durP1;ratioP1;P1;durP2;ratioP2;P2;SDS_P1;SDS_P2;PMS_P1;PMS_P2;Temp;Humidity;BMP_temperature;BMP_pressure;BME280_temperature;BME280_humidity;BME280_pressure;Samples;Min_cycle;Max_cycle;Signal;HPM_P1;HPM_P2
2022/12/24 00:00:34;;;;;;;1.60;1.10;;;11.10;98.20;;;;;;5046001;28;20489;-77
2022/12/24 00:03:01;;;;;;;1.60;1.10;;;11.10;98.20;;;;;;5032079;28;21012;-76
2022/12/24 00:05:28;;;;;;;1.63;1.20;;;11.10;98.20;;;;;;5047346;28;20938;-76
2022/12/24 00:07:55;;;;;;;1.60;1.10;;;11.00;98.20;;;;;;5042708;28;20480;-77
2022/12/24 00:10:23;;;;;;;1.70;1.20;;;11.00;98.20;;;;;;5048142;28;20496;-77
2022/12/24 00:12:50;;;;;;;1.60;1.10;;;11.00;98.20;;;;;;5047257;28;20486;-77
2022/12/24 00:15:16;;;;;;;1.60;1.10;;;10.90;98.20;;;;;;5053709;28;20458;-77
2022/12/24 00:17:43;;;;;;;1.63;1.20;;;10.80;98.20;;;;;;5048579;28;20490;-77
2022/12/24 00:20:10;;;;;;;1.67;1.20;;;10.80;98.20;;;;;;5052897;28;20478;-77
2022/12/24 00:22:37;;;;;;;1.70;1.20;;;10.80;98.20;;;;;;5052827;28;20481;-77
2022/12/24 00:25:04;;;;;;;1.63;1.20;;;10.70;98.20;;;;;;5055801;28;20469;-76
2022/12/24 00:27:33;;;;;;;1.67;1.20;;;10.70;98.20;;;;;;5047482;28;20482;-77
2022/12/24 00:30:00;;;;;;;1.67;1.20;;;10.70;98.20;;;;;;5052916;28;20485;-76
2022/12/24 00:32:26;;;;;;;1.67;1.20;;;10.70;98.20;;;;;;5045973;28;20565;-77
2022/12/24 00:34:53;;;;;;;1.60;1.20;;;10.70;98.20;;;;;;5055509;28;21847;-77
2022/12/24 00:37:20;;;;;;;1.63;1.20;;;10.60;98.20;;;;;;5041447;28;20529;-77
2022/12/24 00:39:47;;;;;;;1.63;1.17;;;10.60;98.20;;;;;;5049215;28;20491;-76
2022/12/24 00:42:14;;;;;;;1.60;1.10;;;10.60;98.20;;;;;;5049149;28;20493;-77
2022/12/24 00:44:42;;;;;;;1.60;1.10;;;10.60;98.20;;;;;;5055897;28;20463;-77
2022/12/24 00:47:09;;;;;;;1.67;1.20;;;10.60;98.20;;;;;;5048466;28;20478;-77
2022/12/24 00:49:37;;;;;;;1.60;1.10;;;10.70;98.20;;;;;;5052812;28;20478;-76
2022/12/24 00:52:04;;;;;;;1.60;1.20;;;10.70;98.20;;;;;;5048365;28;20481;-77
2022/12/24 00:54:31;;;;;;;1.60;1.10;;;10.70;98.20;;;;;;5048022;28;20835;-75
2022/12/24 00:56:57;;;;;;;1.67;1.20;;;10.70;98.20;;;;;;5048499;28;20486;-75
2022/12/24 00:59:24;;;;;;;1.63;1.10;;;10.70;98.20;;;;;;5052838;28;20923;-75
2022/12/24 01:01:53;;;;;;;1.60;1.07;;;10.70;98.20;;;;;;5051008;28;20489;-75
2022/12/24 01:07:04;;;;;;;1.63;1.20;;;10.70;98.20;;;;;;5044368;28;20989;-75
2022/12/24 01:09:31;;;;;;;1.63;1.20;;;10.60;98.20;;;;;;5054030;28;20474;-75
2022/12/24 01:11:57;;;;;;;1.63;1.10;;;10.70;98.20;;;;;;5043169;28;20481;-75
2022/12/24 01:14:24;;;;;;;1.60;1.20;;;10.70;98.20;;;;;;5053477;28;20462;-74
2022/12/24 01:16:53;;;;;;;1.60;1.20;;;10.70;98.20;;;;;;5048841;28;20694;-74
2022/12/24 01:19:19;;;;;;;1.63;1.20;;;10.70;98.20;;;;;;5047254;28;20498;-75
2022/12/24 01:21:46;;;;;;;1.60;1.10;;;10.70;98.20;;;;;;5045930;28;20492;-75
2022/12/24 01:24:15;;;;;;;1.63;1.10;;;10.70;98.20;;;;;;5052786;28;20474;-75
2022/12/24 01:26:42;;;;;;;1.60;1.10;;;10.70;98.20;;;;;;5048562;28;20509;-75
2022/12/24 01:29:08;;;;;;;1.60;1.20;;;10.70;98.20;;;;;;5053246;28;20489;-74
2022/12/24 01:31:35;;;;;;;1.60;1.10;;;10.60;98.20;;;;;;5040631;28;20485;-74
2022/12/24 01:34:03;;;;;;;1.67;1.30;;;10.60;98.20;;;;;;5053468;28;20746;-75
2022/12/24 01:36:30;;;;;;;1.67;1.20;;;10.60;98.20;;;;;;5042085;28;20481;-75
2022/12/24 01:38:57;;;;;;;1.60;1.10;;;10.50;98.20;;;;;;5048225;28;20453;-75
2022/12/24 01:44:25;;;;;;;1.60;1.10;;;10.50;98.20;;;;;;5051295;28;20456;-74
2022/12/24 01:46:56;;;;;;;1.60;1.10;;;10.50;98.20;;;;;;5049383;28;20481;-75
2022/12/24 01:49:25;;;;;;;1.60;1.20;;;10.40;98.20;;;;;;5045639;28;20486;-74
2022/12/24 01:51:57;;;;;;;1.60;1.10;;;10.40;98.20;;;;;;5049905;28;20481;-74
2022/12/24 01:54:30;;;;;;;1.60;1.10;;;10.40;98.20;;;;;;5048738;28;20470;-74
2022/12/24 01:57:02;;;;;;;1.60;1.10;;;10.30;98.20;;;;;;5049987;28;20465;-75
2022/12/24 01:59:30;;;;;;;1.63;1.20;;;10.30;98.20;;;;;;5050728;28;20454;-74
2022/12/24 02:01:57;;;;;;;1.60;1.10;;;10.30;98.20;;;;;;5040969;28;20488;-75
2022/12/24 02:04:34;;;;;;;1.63;1.10;;;10.30;98.20;;;;;;5053092;28;20614;-74
2022/12/24 02:07:01;;;;;;;1.60;1.20;;;10.30;98.20;;;;;;5044402;28;20550;-74
2022/12/24 02:09:28;;;;;;;1.60;1.13;;;10.30;98.20;;;;;;5049332;28;20486;-75
2022/12/24 02:11:56;;;;;;;1.70;1.20;;;10.20;98.20;;;;;;5040138;28;20493;-74
2022/12/24 02:14:25;;;;;;;1.60;1.10;;;10.20;98.20;;;;;;5051732;28;20473;-75
2022/12/24 02:16:57;;;;;;;1.63;1.10;;;10.20;98.20;;;;;;5048919;28;20551;-74
2022/12/24 02:20:03;;;;;;;1.60;1.10;;;10.20;98.20;;;;;;5047838;28;20756;-74
2022/12/24 02:22:45;;;;;;;1.70;1.20;;;10.20;98.20;;;;;;5038832;28;21076;-74
2022/12/24 02:25:32;;;;;;;1.60;1.20;;;10.20;98.20;;;;;;5053472;28;20945;-74
2022/12/24 02:28:10;;;;;;;1.60;1.10;;;10.10;98.20;;;;;;5042234;28;20508;-75
2022/12/24 02:30:43;;;;;;;1.60;1.10;;;10.10;98.20;;;;;;5053162;28;20490;-74
2022/12/24 02:33:20;;;;;;;1.60;1.20;;;10.10;98.20;;;;;;5041125;28;20488;-74
2022/12/24 02:35:54;;;;;;;1.60;1.10;;;10.10;98.20;;;;;;5063014;28;20457;-76
2022/12/24 02:38:27;;;;;;;1.60;1.10;;;10.10;98.20;;;;;;5054015;28;21055;-76
2022/12/24 02:40:59;;;;;;;1.60;1.10;;;10.10;98.20;;;;;;5044002;28;20632;-77
2022/12/24 02:43:32;;;;;;;1.70;1.20;;;10.10;98.20;;;;;;5032718;28;20999;-76
2022/12/24 02:46:05;;;;;;;1.70;1.20;;;10.10;98.20;;;;;;5032705;28;20458;-77
2022/12/24 02:48:32;;;;;;;1.60;1.10;;;10.00;98.20;;;;;;5044815;28;20458;-76
2022/12/24 02:51:04;;;;;;;1.63;1.20;;;10.10;98.20;;;;;;5032892;28;20482;-76
2022/12/24 02:53:31;;;;;;;1.60;1.10;;;10.10;98.20;;;;;;5046599;28;20473;-76
2022/12/24 02:56:26;;;;;;;1.60;1.10;;;10.10;98.20;;;;;;5037644;28;20830;-76
2022/12/24 02:59:12;;;;;;;1.60;1.20;;;10.10;98.20;;;;;;5045268;28;20854;-76
2022/12/24 03:01:50;;;;;;;1.63;1.20;;;10.20;98.20;;;;;;5032476;28;20581;-77
2022/12/24 03:04:38;;;;;;;1.67;1.20;;;10.30;98.20;;;;;;5045786;28;20752;-76
2022/12/24 03:07:13;;;;;;;1.60;1.20;;;10.30;98.20;;;;;;5034942;28;20921;-76
2022/12/24 03:09:51;;;;;;;1.63;1.20;;;10.30;98.20;;;;;;5044163;28;20494;-76
2022/12/24 03:12:23;;;;;;;1.60;1.20;;;10.30;98.20;;;;;;5038003;28;20504;-77
2022/12/24 03:14:50;;;;;;;1.60;1.20;;;10.40;98.20;;;;;;5047321;28;20458;-76
2022/12/24 03:17:19;;;;;;;1.60;1.10;;;10.40;98.20;;;;;;5040299;28;20504;-76
2022/12/24 03:19:47;;;;;;;1.60;1.10;;;10.50;98.20;;;;;;5049118;28;20474;-77
2022/12/24 03:22:17;;;;;;;1.67;1.10;;;10.50;98.20;;;;;;5039775;28;20473;-77
2022/12/24 03:24:44;;;;;;;1.60;1.10;;;10.50;98.20;;;;;;5050574;28;20985;-77
2022/12/24 03:27:13;;;;;;;1.60;1.20;;;10.50;98.20;;;;;;5039773;28;20588;-76
2022/12/24 03:29:41;;;;;;;1.60;1.20;;;10.50;98.20;;;;;;5048813;28;20493;-77
2022/12/24 03:32:08;;;;;;;1.63;1.10;;;10.60;98.20;;;;;;5037964;28;20889;-77
2022/12/24 03:34:37;;;;;;;1.70;1.20;;;10.60;98.20;;;;;;5048157;28;20883;-77
2022/12/24 03:37:21;;;;;;;1.60;1.10;;;10.60;98.20;;;;;;5039329;28;20481;-77
2022/12/24 03:39:48;;;;;;;1.60;1.20;;;10.60;98.20;;;;;;5047627;28;20477;-76
2022/12/24 03:42:15;;;;;;;1.63;1.10;;;10.60;98.20;;;;;;5039712;28;20482;-76
2022/12/24 03:44:42;;;;;;;1.60;1.20;;;10.60;98.20;;;;;;5049664;28;20465;-77
2022/12/24 03:47:09;;;;;;;1.60;1.10;;;10.60;98.20;;;;;;5039370;28;20486;-75
2022/12/24 03:49:37;;;;;;;1.67;1.20;;;10.60;98.20;;;;;;5049380;28;20497;-74
2022/12/24 03:52:04;;;;;;;1.60;1.10;;;10.60;98.20;;;;;;5038649;28;20513;-75
2022/12/24 03:54:32;;;;;;;1.70;1.20;;;10.50;98.20;;;;;;5050545;28;20812;-74
2022/12/24 03:56:59;;;;;;;1.60;1.10;;;10.50;98.20;;;;;;5037629;28;20482;-75
2022/12/24 03:59:26;;;;;;;1.60;1.03;;;10.50;98.20;;;;;;5048631;28;20463;-74
2022/12/24 04:01:54;;;;;;;1.60;1.10;;;10.50;98.20;;;;;;5037617;28;21025;-74
2022/12/24 04:04:21;;;;;;;1.60;1.10;;;10.50;98.20;;;;;;5049613;28;20454;-74
2022/12/24 04:06:49;;;;;;;1.60;1.10;;;10.50;98.20;;;;;;5039124;28;21017;-75
2022/12/24 04:09:16;;;;;;;1.60;1.10;;;10.50;98.20;;;;;;5049877;28;20463;-74
2022/12/24 04:11:42;;;;;;;1.60;1.10;;;10.50;98.20;;;;;;5038179;28;20561;-74
2022/12/24 04:14:09;;;;;;;1.60;1.20;;;10.50;98.20;;;;;;5048644;28;20959;-74
2022/12/24 04:16:36;;;;;;;1.60;1.13;;;10.50;98.20;;;;;;5039792;28;20486;-74
2022/12/24 04:19:02;;;;;;;1.60;1.10;;;10.50;98.20;;;;;;5048953;28;20458;-75
2022/12/24 04:21:29;;;;;;;1.60;1.10;;;10.50;98.20;;;;;;5039889;28;20501;-74
2022/12/24 04:24:04;;;;;;;1.63;1.20;;;10.50;98.20;;;;;;5049169;28;20465;-74
2022/12/24 04:26:30;;;;;;;1.63;1.17;;;10.50;98.20;;;;;;5035698;28;20478;-74
2022/12/24 04:28:57;;;;;;;1.60;1.10;;;10.50;98.20;;;;;;5048167;28;20458;-74
2022/12/24 04:31:24;;;;;;;1.60;1.10;;;10.50;98.20;;;;;;5038904;28;21029;-74
2022/12/24 04:33:53;;;;;;;1.60;1.20;;;10.50;98.20;;;;;;5047701;28;20469;-74
2022/12/24 04:36:20;;;;;;;1.63;1.13;;;10.50;98.20;;;;;;5039791;28;20481;-74
2022/12/24 04:38:48;;;;;;;1.60;1.10;;;10.50;98.20;;;;;;5045588;28;20463;-77
2022/12/24 04:41:18;;;;;;;1.63;1.20;;;10.50;98.20;;;;;;5039132;28;20477;-76
2022/12/24 04:43:46;;;;;;;1.60;1.10;;;10.50;98.20;;;;;;5046194;28;20462;-76
2022/12/24 04:46:17;;;;;;;1.60;1.10;;;10.50;98.20;;;;;;5040534;28;20484;-76
2022/12/24 04:48:44;;;;;;;1.60;1.10;;;10.50;98.20;;;;;;5048308;28;20468;-76
2022/12/24 04:51:12;;;;;;;2.23;2.03;;;10.50;98.20;;;;;;5038746;28;20540;-76
2022/12/24 04:53:40;;;;;;;1.60;1.10;;;10.50;98.20;;;;;;5048473;28;20462;-74
2022/12/24 04:56:10;;;;;;;1.60;1.10;;;10.50;98.20;;;;;;5038053;28;20475;-74
2022/12/24 04:58:38;;;;;;;1.70;1.40;;;10.50;98.20;;;;;;5048670;28;20842;-74
2022/12/24 05:01:06;;;;;;;1.70;1.30;;;10.50;98.20;;;;;;5034363;28;20978;-74
2022/12/24 05:03:33;;;;;;;1.60;1.10;;;10.40;98.20;;;;;;5055078;28;20454;-75
2022/12/24 05:06:04;;;;;;;1.60;1.20;;;10.40;98.20;;;;;;5049152;28;20457;-76
2022/12/24 05:08:31;;;;;;;1.63;1.20;;;10.40;98.20;;;;;;5046275;28;20450;-76
2022/12/24 05:10:58;;;;;;;1.60;1.10;;;10.30;98.20;;;;;;5049502;28;20477;-76
2022/12/24 05:13:25;;;;;;;1.60;1.20;;;10.30;98.20;;;;;;5057102;28;20466;-76
2022/12/24 05:15:54;;;;;;;1.63;1.20;;;10.30;98.20;;;;;;5047839;28;21042;-75
2022/12/24 05:18:21;;;;;;;1.60;1.10;;;10.30;98.20;;;;;;5055165;28;20484;-76
2022/12/24 05:20:49;;;;;;;1.60;1.10;;;10.30;98.20;;;;;;5048416;28;20585;-76
2022/12/24 05:26:23;;;;;;;1.60;1.10;;;10.30;98.20;;;;;;5050167;28;20437;-76
2022/12/24 05:28:51;;;;;;;1.60;1.20;;;10.30;98.20;;;;;;5059622;28;20494;-79
2022/12/24 05:31:20;;;;;;;1.63;1.20;;;10.30;98.20;;;;;;5046477;28;20567;-77
2022/12/24 05:33:47;;;;;;;1.60;1.20;;;10.30;98.20;;;;;;5055264;28;20481;-76
2022/12/24 05:36:14;;;;;;;1.60;1.20;;;10.40;98.20;;;;;;5043737;28;20477;-76
2022/12/24 05:38:41;;;;;;;1.60;1.10;;;10.40;98.20;;;;;;5050000;28;20481;-75
2022/12/24 05:41:09;;;;;;;1.67;1.20;;;10.40;98.20;;;;;;5049851;28;20481;-76
2022/12/24 05:43:36;;;;;;;1.60;1.10;;;10.40;98.20;;;;;;5057069;28;20486;-76
2022/12/24 05:46:05;;;;;;;1.67;1.20;;;10.40;98.20;;;;;;5045934;28;20467;-76
2022/12/24 05:48:34;;;;;;;1.60;1.20;;;10.40;98.20;;;;;;5043632;28;20458;-75
2022/12/24 05:51:04;;;;;;;1.70;1.27;;;10.40;98.20;;;;;;5047761;28;20485;-76
2022/12/24 05:53:31;;;;;;;1.60;1.20;;;10.50;98.20;;;;;;5055623;28;20473;-76
2022/12/24 05:56:03;;;;;;;1.60;1.20;;;10.50;98.20;;;;;;5032369;28;20520;-75
2022/12/24 05:58:30;;;;;;;2.50;2.30;;;10.50;98.20;;;;;;5038071;28;20470;-75
2022/12/24 06:00:56;;;;;;;1.60;1.17;;;10.50;98.20;;;;;;5041251;28;20476;-75
2022/12/24 06:03:23;;;;;;;1.60;1.10;;;10.50;98.20;;;;;;5044087;28;20497;-74
2022/12/24 06:06:00;;;;;;;1.60;1.10;;;10.50;98.20;;;;;;5045533;28;20465;-76
2022/12/24 06:08:27;;;;;;;1.70;1.20;;;10.50;98.20;;;;;;5046620;28;20472;-75
2022/12/24 06:10:56;;;;;;;1.60;1.20;;;10.50;98.20;;;;;;5041192;28;20498;-75
2022/12/24 06:13:23;;;;;;;1.60;1.20;;;10.50;98.20;;;;;;5054554;28;20462;-75
2022/12/24 06:15:50;;;;;;;1.60;1.20;;;10.50;98.20;;;;;;5039314;28;20458;-75
2022/12/24 06:18:17;;;;;;;1.67;1.20;;;10.60;98.20;;;;;;5049245;28;20454;-75
2022/12/24 06:20:44;;;;;;;1.60;1.10;;;10.60;98.20;;;;;;5051858;28;20482;-75
2022/12/24 06:23:12;;;;;;;1.63;1.20;;;10.50;98.20;;;;;;5025740;28;20478;-75
2022/12/24 06:25:39;;;;;;;1.60;1.20;;;10.60;98.20;;;;;;5051312;28;20462;-76
2022/12/24 06:28:05;;;;;;;1.70;1.33;;;10.50;98.20;;;;;;5028137;28;20494;-76
2022/12/24 06:30:32;;;;;;;1.60;1.17;;;10.50;98.20;;;;;;5051541;28;20490;-74
2022/12/24 06:32:59;;;;;;;1.60;1.10;;;10.50;98.20;;;;;;5029990;28;20478;-75
2022/12/24 06:35:26;;;;;;;1.63;1.20;;;10.50;98.20;;;;;;5046446;28;20462;-76
2022/12/24 06:37:53;;;;;;;1.60;1.10;;;10.50;98.20;;;;;;5035326;28;20491;-75
2022/12/24 06:40:21;;;;;;;1.60;1.13;;;10.40;98.20;;;;;;5053856;28;20486;-75
2022/12/24 06:42:48;;;;;;;1.60;1.20;;;10.40;98.20;;;;;;5034719;28;20994;-75
2022/12/24 06:45:14;;;;;;;1.60;1.17;;;10.30;98.20;;;;;;5049051;28;20458;-75
2022/12/24 06:47:41;;;;;;;1.70;1.20;;;10.30;98.20;;;;;;5041984;28;21041;-75
2022/12/24 06:50:09;;;;;;;1.60;1.10;;;10.30;98.20;;;;;;5050882;28;21074;-75
2022/12/24 06:52:36;;;;;;;1.70;1.20;;;10.30;98.20;;;;;;5032128;28;20498;-75
2022/12/24 06:55:02;;;;;;;1.60;1.20;;;10.30;98.20;;;;;;5047544;28;20462;-75
2022/12/24 06:57:31;;;;;;;1.67;1.20;;;10.30;98.20;;;;;;5040462;28;20521;-74
2022/12/24 06:59:58;;;;;;;1.63;1.20;;;10.30;98.20;;;;;;5048536;28;20477;-74
2022/12/24 07:02:25;;;;;;;1.60;1.10;;;10.40;98.20;;;;;;5033874;28;20491;-74
2022/12/24 07:04:52;;;;;;;1.70;1.20;;;10.40;98.20;;;;;;5051037;28;20462;-74
2022/12/24 07:07:19;;;;;;;1.70;1.20;;;10.50;98.20;;;;;;5030237;28;20479;-74
2022/12/24 07:09:46;;;;;;;1.60;1.10;;;10.50;98.20;;;;;;5045855;28;20846;-74
2022/12/24 07:12:12;;;;;;;1.90;1.70;;;10.50;98.20;;;;;;5034941;28;20487;-74
2022/12/24 07:14:40;;;;;;;1.60;1.10;;;10.50;98.20;;;;;;5043770;28;20454;-74
2022/12/24 07:17:07;;;;;;;1.63;1.20;;;10.50;98.20;;;;;;5030263;28;20486;-73
2022/12/24 07:19:34;;;;;;;1.60;1.20;;;10.50;98.20;;;;;;5042656;28;21002;-73
2022/12/24 07:22:03;;;;;;;1.60;1.10;;;10.60;98.20;;;;;;5040810;28;20482;-74
2022/12/24 07:24:30;;;;;;;1.60;1.10;;;10.60;98.20;;;;;;5051043;28;20466;-73
2022/12/24 07:26:56;;;;;;;1.63;1.20;;;10.50;98.20;;;;;;5036321;28;20530;-74
2022/12/24 07:29:23;;;;;;;1.63;1.20;;;10.50;98.20;;;;;;5041409;28;20457;-74
2022/12/24 07:31:51;;;;;;;1.60;1.10;;;10.50;98.20;;;;;;5039946;28;20489;-74
2022/12/24 07:34:18;;;;;;;1.60;1.10;;;10.50;98.20;;;;;;5047029;28;20470;-74
2022/12/24 07:36:44;;;;;;;1.60;1.10;;;10.50;98.20;;;;;;5037731;28;20482;-74
2022/12/24 07:39:11;;;;;;;1.60;1.20;;;10.40;98.20;;;;;;5047968;28;20473;-74
2022/12/24 07:41:38;;;;;;;1.63;1.20;;;10.40;98.20;;;;;;5040961;28;20497;-74
2022/12/24 07:44:05;;;;;;;1.67;1.30;;;10.40;98.20;;;;;;5048456;28;21120;-74
2022/12/24 07:46:32;;;;;;;1.63;1.10;;;10.40;98.20;;;;;;5036336;28;20473;-74
2022/12/24 07:49:00;;;;;;;1.63;1.13;;;10.30;98.20;;;;;;5049404;28;20485;-74
2022/12/24 07:51:26;;;;;;;1.67;1.20;;;10.30;98.20;;;;;;5034986;28;21027;-73
2022/12/24 07:53:53;;;;;;;1.60;1.10;;;10.30;98.20;;;;;;5040085;28;20453;-74
2022/12/24 07:56:20;;;;;;;1.63;1.10;;;10.30;98.20;;;;;;5035809;28;20857;-74
2022/12/24 07:58:47;;;;;;;1.60;1.20;;;10.30;98.20;;;;;;5038999;28;20943;-74
2022/12/24 08:01:13;;;;;;;1.60;1.13;;;10.30;98.20;;;;;;5039152;28;20618;-74
2022/12/24 08:03:40;;;;;;;1.60;1.10;;;10.30;98.20;;;;;;5042764;28;20462;-74
2022/12/24 08:06:08;;;;;;;1.60;1.20;;;10.30;98.20;;;;;;5043081;28;20486;-74
2022/12/24 08:08:36;;;;;;;1.60;1.10;;;10.40;98.20;;;;;;5041280;28;20942;-74
2022/12/24 08:11:06;;;;;;;1.60;1.20;;;10.40;98.20;;;;;;5040790;28;20496;-74
2022/12/24 08:13:33;;;;;;;1.60;1.10;;;10.40;98.20;;;;;;5052170;28;20473;-74
2022/12/24 08:16:00;;;;;;;1.60;1.10;;;10.40;98.20;;;;;;5041498;28;20457;-74
2022/12/24 08:18:27;;;;;;;1.70;1.20;;;10.40;98.20;;;;;;5036413;28;20489;-74
2022/12/24 08:20:54;;;;;;;1.63;1.20;;;10.40;98.20;;;;;;5043669;28;21143;-73
2022/12/24 08:23:22;;;;;;;1.60;1.17;;;10.50;98.20;;;;;;5043823;28;20473;-74
2022/12/24 08:25:49;;;;;;;1.60;1.10;;;10.50;98.20;;;;;;5039117;28;20465;-73
2022/12/24 08:28:17;;;;;;;1.60;1.13;;;10.50;98.20;;;;;;5044874;28;20473;-74
2022/12/24 08:30:45;;;;;;;1.60;1.20;;;10.50;98.20;;;;;;5052752;28;20490;-74
2022/12/24 08:33:12;;;;;;;1.60;1.20;;;10.50;98.20;;;;;;5025931;28;20473;-74
2022/12/24 08:35:39;;;;;;;1.60;1.10;;;10.60;98.20;;;;;;5051422;28;20462;-74
2022/12/24 08:38:05;;;;;;;1.87;1.67;;;10.60;98.20;;;;;;5031256;28;20474;-74
2022/12/24 08:40:33;;;;;;;1.63;1.20;;;10.60;98.20;;;;;;5054291;28;20505;-74
2022/12/24 08:43:02;;;;;;;1.60;1.20;;;10.70;98.20;;;;;;5029577;28;20486;-74
2022/12/24 08:45:29;;;;;;;1.60;1.10;;;10.70;98.20;;;;;;5050152;28;20547;-74
2022/12/24 08:47:55;;;;;;;1.70;1.20;;;10.70;98.20;;;;;;5034963;28;20521;-73
2022/12/24 08:50:22;;;;;;;1.60;1.17;;;10.70;98.20;;;;;;5053000;28;20847;-73
2022/12/24 08:52:49;;;;;;;1.63;1.10;;;10.70;98.20;;;;;;5035082;28;20479;-74
2022/12/24 08:55:16;;;;;;;1.60;1.20;;;10.70;98.20;;;;;;5050979;28;20494;-74
2022/12/24 08:57:44;;;;;;;1.90;1.70;;;10.80;98.20;;;;;;5029262;28;20503;-74
2022/12/24 09:00:13;;;;;;;1.67;1.20;;;10.80;98.20;;;;;;5050020;28;20488;-74
2022/12/24 09:02:39;;;;;;;1.70;1.20;;;10.80;98.20;;;;;;5030119;28;20482;-74
2022/12/24 09:05:07;;;;;;;1.60;1.20;;;10.80;98.20;;;;;;5050851;28;20484;-74
2022/12/24 09:07:34;;;;;;;1.60;1.20;;;10.70;98.20;;;;;;5030873;28;20489;-74
2022/12/24 09:10:00;;;;;;;1.67;1.20;;;10.80;98.20;;;;;;5044540;28;20892;-74
2022/12/24 09:12:27;;;;;;;1.70;1.20;;;10.70;98.20;;;;;;5041542;28;20997;-74
2022/12/24 09:14:56;;;;;;;1.60;1.10;;;10.80;98.20;;;;;;5050675;28;20470;-75
2022/12/24 09:17:22;;;;;;;1.70;1.40;;;10.80;98.20;;;;;;5032272;28;20538;-74
2022/12/24 09:19:50;;;;;;;1.63;1.20;;;10.80;98.20;;;;;;5042533;28;20491;-73
2022/12/24 09:22:16;;;;;;;1.67;1.20;;;10.80;98.20;;;;;;5042169;28;20564;-74
2022/12/24 09:24:43;;;;;;;1.60;1.10;;;10.80;98.20;;;;;;5047298;28;20462;-74
2022/12/24 09:27:10;;;;;;;1.63;1.10;;;10.80;98.20;;;;;;5034048;28;20481;-73
2022/12/24 09:29:39;;;;;;;1.70;1.10;;;10.80;98.20;;;;;;5043994;28;21321;-74
2022/12/24 09:32:07;;;;;;;1.60;1.10;;;10.80;98.20;;;;;;5030556;28;20478;-75
2022/12/24 09:34:34;;;;;;;1.60;1.20;;;10.90;98.20;;;;;;5041052;28;20822;-74
2022/12/24 09:37:01;;;;;;;1.63;1.10;;;10.90;98.20;;;;;;5036278;28;21003;-74
2022/12/24 09:39:29;;;;;;;1.70;1.20;;;10.90;98.20;;;;;;5043255;28;20951;-75
2022/12/24 09:42:07;;;;;;;1.63;1.10;;;10.90;98.20;;;;;;5036166;28;20998;-73
2022/12/24 09:44:43;;;;;;;1.60;1.10;;;10.90;98.20;;;;;;5041884;28;20458;-74
2022/12/24 09:47:22;;;;;;;1.60;1.10;;;10.90;98.20;;;;;;5030218;28;20474;-74
2022/12/24 09:49:53;;;;;;;1.60;1.00;;;10.90;98.20;;;;;;5043424;28;20508;-74
2022/12/24 09:52:29;;;;;;;1.60;1.20;;;10.90;98.20;;;;;;5039930;28;20553;-74
2022/12/24 09:55:03;;;;;;;1.60;1.10;;;10.90;98.20;;;;;;5046957;28;20454;-73
2022/12/24 09:57:35;;;;;;;1.60;1.10;;;10.90;98.20;;;;;;5037670;28;20576;-74
2022/12/24 10:00:03;;;;;;;1.60;1.10;;;11.00;98.20;;;;;;5048394;28;20508;-74
2022/12/24 10:02:32;;;;;;;1.60;1.10;;;11.00;98.20;;;;;;5027770;28;20483;-73
2022/12/24 10:04:59;;;;;;;1.60;1.10;;;11.00;98.20;;;;;;5040004;28;21001;-73
2022/12/24 10:07:37;;;;;;;1.60;1.00;;;11.10;98.20;;;;;;5033452;28;20565;-73
2022/12/24 10:10:14;;;;;;;1.60;1.20;;;11.10;98.20;;;;;;5040821;28;20480;-74
2022/12/24 10:12:46;;;;;;;1.60;1.10;;;11.10;98.20;;;;;;5029362;28;20512;-74
2022/12/24 10:15:20;;;;;;;1.60;1.10;;;11.20;98.20;;;;;;5050724;28;20835;-75
2022/12/24 10:18:01;;;;;;;1.67;1.17;;;11.20;98.20;;;;;;5025463;28;20909;-74
2022/12/24 10:21:05;;;;;;;5.00;3.20;;;11.30;98.20;;;;;;5046343;28;20539;-74
2022/12/24 10:23:38;;;;;;;1.63;1.10;;;11.30;98.20;;;;;;5024107;28;20491;-74
2022/12/24 10:26:12;;;;;;;1.63;1.10;;;11.40;98.20;;;;;;5035226;28;20461;-73
2022/12/24 10:28:45;;;;;;;1.60;1.10;;;11.40;98.20;;;;;;5048110;28;20467;-74
2022/12/24 10:31:13;;;;;;;1.60;1.20;;;11.40;98.20;;;;;;5034931;28;20478;-74
2022/12/24 10:33:44;;;;;;;1.60;1.10;;;11.50;98.20;;;;;;5035083;28;20566;-74
2022/12/24 10:36:18;;;;;;;1.60;1.10;;;11.50;98.20;;;;;;5035792;28;20477;-74
2022/12/24 10:38:45;;;;;;;1.60;1.10;;;11.50;98.20;;;;;;5044199;28;20466;-73
2022/12/24 10:41:15;;;;;;;1.60;1.10;;;11.50;98.20;;;;;;5035021;28;20939;-73
2022/12/24 10:43:44;;;;;;;1.63;1.10;;;11.50;98.20;;;;;;5034058;28;20462;-75
2022/12/24 10:46:18;;;;;;;1.60;1.10;;;11.50;98.20;;;;;;5032628;28;20477;-74
2022/12/24 10:48:53;;;;;;;1.70;1.10;;;11.60;98.20;;;;;;5035375;28;20948;-74
2022/12/24 10:51:25;;;;;;;1.60;1.10;;;11.60;98.20;;;;;;5034023;28;20483;-74
2022/12/24 10:53:58;;;;;;;1.67;1.20;;;11.60;98.20;;;;;;5038605;28;20748;-74
2022/12/24 10:56:25;;;;;;;1.60;1.00;;;11.60;98.20;;;;;;5036800;28;20477;-73
2022/12/24 10:58:54;;;;;;;1.60;1.20;;;11.60;98.20;;;;;;5049966;28;20460;-73
2022/12/24 11:01:41;;;;;;;1.60;1.10;;;11.60;98.20;;;;;;5034694;28;20496;-73
2022/12/24 11:04:17;;;;;;;1.70;1.13;;;11.50;98.20;;;;;;5046044;28;20473;-73
2022/12/24 11:06:54;;;;;;;1.60;1.10;;;11.60;98.20;;;;;;5032810;28;20477;-73
2022/12/24 11:09:24;;;;;;;1.63;1.10;;;11.60;98.20;;;;;;5041627;28;20541;-73
2022/12/24 11:11:51;;;;;;;1.70;1.30;;;11.60;98.20;;;;;;5034119;28;20482;-74
2022/12/24 11:14:20;;;;;;;1.60;1.10;;;11.70;98.20;;;;;;5042149;28;20783;-72
2022/12/24 11:16:52;;;;;;;1.63;1.13;;;11.80;98.20;;;;;;5036382;28;20490;-73
2022/12/24 11:19:29;;;;;;;1.60;1.10;;;11.80;98.20;;;;;;5037876;28;20458;-73
2022/12/24 11:22:02;;;;;;;1.70;1.27;;;11.80;98.20;;;;;;5038785;28;20501;-73
2022/12/24 11:24:43;;;;;;;1.60;1.10;;;11.90;98.20;;;;;;5048181;28;20458;-74
2022/12/24 11:27:29;;;;;;;1.60;1.10;;;11.90;98.20;;;;;;5033085;28;20532;-73
2022/12/24 11:30:23;;;;;;;1.70;1.20;;;11.90;98.20;;;;;;5042554;28;20928;-74
2022/12/24 11:33:08;;;;;;;1.60;1.10;;;12.00;98.20;;;;;;5027469;28;21120;-73
2022/12/24 11:35:48;;;;;;;1.60;1.00;;;12.00;98.20;;;;;;5047952;28;20466;-74
2022/12/24 11:38:21;;;;;;;1.60;1.10;;;12.00;98.20;;;;;;5024938;28;20540;-74
2022/12/24 11:40:49;;;;;;;1.60;1.10;;;12.10;98.20;;;;;;5038061;28;20486;-74
2022/12/24 11:43:19;;;;;;;1.60;1.00;;;12.10;98.20;;;;;;5040736;28;20459;-73
2022/12/24 11:45:50;;;;;;;1.67;1.10;;;12.20;98.20;;;;;;5040230;28;20466;-73
2022/12/24 11:48:29;;;;;;;1.60;1.10;;;12.30;98.20;;;;;;5037824;28;20485;-73
2022/12/24 11:51:00;;;;;;;1.60;1.10;;;12.30;98.20;;;;;;5035933;28;20561;-74
2022/12/24 11:53:34;;;;;;;1.60;1.00;;;12.40;98.20;;;;;;5044876;28;20496;-74
2022/12/24 11:56:06;;;;;;;1.60;1.00;;;12.50;98.20;;;;;;5037245;28;20843;-74
2022/12/24 11:58:37;;;;;;;1.63;1.10;;;12.60;98.20;;;;;;5052407;28;20549;-74
2022/12/24 12:01:14;;;;;;;1.60;1.10;;;12.60;98.20;;;;;;5035006;28;20489;-74
2022/12/24 12:03:45;;;;;;;1.60;1.00;;;12.60;98.20;;;;;;5042558;28;20581;-74
2022/12/24 12:06:34;;;;;;;1.60;1.00;;;12.60;98.20;;;;;;5034630;28;20478;-74
2022/12/24 12:09:05;;;;;;;1.67;1.20;;;12.60;98.20;;;;;;5041884;28;20470;-74
2022/12/24 12:11:33;;;;;;;1.63;1.13;;;12.60;98.20;;;;;;5031867;28;20491;-74
2022/12/24 12:14:03;;;;;;;1.63;1.10;;;12.50;98.20;;;;;;5039808;28;20561;-74
2022/12/24 12:19:21;;;;;;;1.70;1.20;;;12.50;98.20;;;;;;5045551;28;20461;-74
2022/12/24 12:21:50;;;;;;;1.60;1.00;;;12.40;98.20;;;;;;5040903;28;20486;-73
2022/12/24 12:24:26;;;;;;;1.67;1.10;;;12.40;98.20;;;;;;5052008;28;20446;-74
2022/12/24 12:27:01;;;;;;;2.00;1.40;;;12.40;98.20;;;;;;5032455;28;21155;-74
2022/12/24 12:29:33;;;;;;;1.60;1.00;;;12.40;98.20;;;;;;5042839;28;20672;-72
2022/12/24 12:32:06;;;;;;;1.60;1.07;;;12.40;98.20;;;;;;5031836;28;20478;-73
2022/12/24 12:34:36;;;;;;;1.60;1.10;;;12.40;98.20;;;;;;5043978;28;20469;-74
2022/12/24 12:37:24;;;;;;;1.60;1.10;;;12.50;98.20;;;;;;5028920;28;20478;-74
2022/12/24 12:39:51;;;;;;;1.67;1.10;;;12.50;98.20;;;;;;5041863;28;20931;-74
2022/12/24 12:42:28;;;;;;;1.60;1.10;;;12.50;98.20;;;;;;5011801;28;20503;-74
2022/12/24 12:45:16;;;;;;;1.60;1.10;;;12.60;98.20;;;;;;5042751;28;20543;-74
2022/12/24 12:48:05;;;;;;;1.60;1.10;;;12.70;98.20;;;;;;5024099;28;20470;-74
2022/12/24 12:50:36;;;;;;;1.60;1.00;;;12.70;98.20;;;;;;5046912;28;21038;-74
2022/12/24 12:53:23;;;;;;;1.60;1.00;;;12.90;98.20;;;;;;5023816;28;20571;-74
2022/12/24 12:55:59;;;;;;;1.70;1.20;;;13.10;98.20;;;;;;5032066;28;20465;-74
2022/12/24 12:58:33;;;;;;;1.60;1.10;;;13.30;98.20;;;;;;5044755;28;20461;-74
2022/12/24 13:01:07;;;;;;;1.60;1.10;;;13.30;98.20;;;;;;5032673;28;20535;-74
2022/12/24 13:03:50;;;;;;;1.63;1.10;;;13.10;98.20;;;;;;5043284;28;20548;-74
2022/12/24 13:06:39;;;;;;;1.60;1.10;;;13.00;98.20;;;;;;5032832;28;20465;-74
2022/12/24 13:09:39;;;;;;;1.60;1.10;;;12.90;98.20;;;;;;5037161;28;20926;-74
2022/12/24 13:12:28;;;;;;;1.60;1.07;;;12.90;98.20;;;;;;5021060;28;20478;-72
2022/12/24 13:15:26;;;;;;;1.70;1.20;;;12.90;98.20;;;;;;5042747;28;20621;-72